sensor_id;sensor_type;location;lat;lon;timestamp;pressure;altitude;pressure_sealevel;temperature;humidity
53514;BME280;39768;54.148;12.174;2023-05-01T00:02:26;102034.53;;;7.29;80.28
53514;BME280;39768;54.148;12.174;2023-05-01T00:06:28;102039.31;;;6.28;88.38
53514;BME280;39768;54.148;12.174;2023-05-01T00:10:30;102036.94;;;6.39;89.44
53514;BME280;39768;54.148;12.174;2023-05-01T00:14:31;102025.94;;;6.96;84.18
53514;BME280;39768;54.148;12.174;2023-05-01T00:18:33;102024.25;;;6.23;90.03
53514;BME280;39768;54.148;12.174;2023-05-01T00:22:34;102022.31;;;6.16;91.48
53514;BME280;39768;54.148;12.174;2023-05-01T00:26:36;102016.00;;;6.45;87.55
53514;BME280;39768;54.148;12.174;2023-05-01T00:30:37;102013.72;;;5.88;91.46
53514;BME280;39768;54.148;12.174;2023-05-01T00:34:38;102016.53;;;5.63;93.29
53514;BME280;39768;54.148;12.174;2023-05-01T00:38:40;102003.41;;;5.66;93.82
53514;BME280;39768;54.148;12.174;2023-05-01T00:42:41;102000.19;;;5.76;94.60
53514;BME280;39768;54.148;12.174;2023-05-01T00:46:43;101985.78;;;5.62;95.11
53514;BME280;39768;54.148;12.174;2023-05-01T00:50:46;101992.66;;;5.57;94.65
53514;BME280;39768;54.148;12.174;2023-05-01T00:54:47;101979.44;;;6.24;91.94
53514;BME280;39768;54.148;12.174;2023-05-01T00:58:52;101984.13;;;6.00;90.14
53514;BME280;39768;54.148;12.174;2023-05-01T01:02:54;101979.53;;;5.91;90.93
53514;BME280;39768;54.148;12.174;2023-05-01T01:07:21;101977.78;;;5.92;90.54
53514;BME280;39768;54.148;12.174;2023-05-01T01:11:34;101976.03;;;5.26;92.13
53514;BME280;39768;54.148;12.174;2023-05-01T01:29:38;101950.97;;;6.47;83.99
53514;BME280;39768;54.148;12.174;2023-05-01T01:37:50;101943.91;;;5.40;96.45
53514;BME280;39768;54.148;12.174;2023-05-01T01:41:56;101943.50;;;5.90;91.87
53514;BME280;39768;54.148;12.174;2023-05-01T01:46:02;101939.84;;;5.87;90.66
53514;BME280;39768;54.148;12.174;2023-05-01T01:50:08;101940.66;;;6.19;88.70
53514;BME280;39768;54.148;12.174;2023-05-01T01:54:12;101934.47;;;5.48;92.04
53514;BME280;39768;54.148;12.174;2023-05-01T01:58:16;101928.09;;;6.09;89.76
53514;BME280;39768;54.148;12.174;2023-05-01T02:02:22;101922.78;;;6.45;87.13
53514;BME280;39768;54.148;12.174;2023-05-01T02:06:25;101930.81;;;6.12;88.56
53514;BME280;39768;54.148;12.174;2023-05-01T02:10:28;101931.22;;;5.91;89.77
53514;BME280;39768;54.148;12.174;2023-05-01T02:14:30;101925.94;;;5.91;87.29
53514;BME280;39768;54.148;12.174;2023-05-01T02:18:33;101924.28;;;6.33;86.33
53514;BME280;39768;54.148;12.174;2023-05-01T02:22:36;101921.09;;;6.48;85.47
53514;BME280;39768;54.148;12.174;2023-05-01T02:26:41;101922.59;;;5.65;89.02
53514;BME280;39768;54.148;12.174;2023-05-01T02:30:43;101920.13;;;5.37;90.94
53514;BME280;39768;54.148;12.174;2023-05-01T02:34:47;101908.91;;;5.11;95.18
53514;BME280;39768;54.148;12.174;2023-05-01T02:38:49;101905.78;;;5.58;94.06
53514;BME280;39768;54.148;12.174;2023-05-01T02:42:51;101904.38;;;6.09;87.10
53514;BME280;39768;54.148;12.174;2023-05-01T02:46:55;101902.38;;;6.36;84.51
53514;BME280;39768;54.148;12.174;2023-05-01T02:50:59;101902.31;;;5.61;84.62
53514;BME280;39768;54.148;12.174;2023-05-01T02:55:02;101898.25;;;6.10;84.44
53514;BME280;39768;54.148;12.174;2023-05-01T02:59:04;101897.72;;;6.26;84.57
53514;BME280;39768;54.148;12.174;2023-05-01T03:03:05;101893.63;;;6.38;85.26
53514;BME280;39768;54.148;12.174;2023-05-01T03:07:07;101887.47;;;6.38;86.38
53514;BME280;39768;54.148;12.174;2023-05-01T03:11:08;101895.94;;;6.64;85.43
53514;BME280;39768;54.148;12.174;2023-05-01T03:15:10;101890.72;;;6.68;84.49
53514;BME280;39768;54.148;12.174;2023-05-01T03:19:12;101881.81;;;6.62;82.66
53514;BME280;39768;54.148;12.174;2023-05-01T03:23:14;101873.13;;;6.66;83.29
53514;BME280;39768;54.148;12.174;2023-05-01T03:27:18;101874.25;;;6.36;81.23
53514;BME280;39768;54.148;12.174;2023-05-01T03:31:19;101874.09;;;5.90;87.02
53514;BME280;39768;54.148;12.174;2023-05-01T03:35:22;101878.50;;;4.89;91.29
53514;BME280;39768;54.148;12.174;2023-05-01T03:39:23;101881.94;;;5.54;88.71
53514;BME280;39768;54.148;12.174;2023-05-01T03:44:00;101874.94;;;5.89;84.45
53514;BME280;39768;54.148;12.174;2023-05-01T03:48:18;101869.94;;;6.01;84.78
53514;BME280;39768;54.148;12.174;2023-05-01T03:52:19;101859.13;;;5.89;84.95
53514;BME280;39768;54.148;12.174;2023-05-01T03:56:21;101850.91;;;5.77;87.29
53514;BME280;39768;54.148;12.174;2023-05-01T04:00:26;101860.06;;;4.89;92.68
53514;BME280;39768;54.148;12.174;2023-05-01T04:04:27;101850.78;;;5.72;89.76
53514;BME280;39768;54.148;12.174;2023-05-01T04:08:31;101855.00;;;5.65;88.94
53514;BME280;39768;54.148;12.174;2023-05-01T04:12:32;101856.91;;;6.07;85.96
53514;BME280;39768;54.148;12.174;2023-05-01T04:16:34;101851.97;;;6.24;86.05
53514;BME280;39768;54.148;12.174;2023-05-01T04:20:36;101847.41;;;6.57;82.24
53514;BME280;39768;54.148;12.174;2023-05-01T04:24:37;101848.72;;;6.78;82.85
53514;BME280;39768;54.148;12.174;2023-05-01T04:28:39;101837.34;;;7.84;76.97
53514;BME280;39768;54.148;12.174;2023-05-01T04:32:43;101840.41;;;9.76;66.47
53514;BME280;39768;54.148;12.174;2023-05-01T04:36:44;101833.03;;;11.18;55.70
53514;BME280;39768;54.148;12.174;2023-05-01T04:40:46;101835.53;;;12.56;49.56
53514;BME280;39768;54.148;12.174;2023-05-01T04:44:48;101837.88;;;14.13;45.87
53514;BME280;39768;54.148;12.174;2023-05-01T04:48:49;101838.97;;;14.72;43.63
53514;BME280;39768;54.148;12.174;2023-05-01T04:52:51;101834.00;;;14.45;43.36
53514;BME280;39768;54.148;12.174;2023-05-01T04:56:52;101831.28;;;14.50;45.26
53514;BME280;39768;54.148;12.174;2023-05-01T05:00:54;101820.94;;;14.19;46.48
53514;BME280;39768;54.148;12.174;2023-05-01T05:04:57;101833.41;;;16.01;42.87
53514;BME280;39768;54.148;12.174;2023-05-01T05:08:59;101833.28;;;16.06;42.29
53514;BME280;39768;54.148;12.174;2023-05-01T05:13:01;101819.56;;;15.76;41.96
53514;BME280;39768;54.148;12.174;2023-05-01T05:17:02;101821.94;;;15.41;42.67
53514;BME280;39768;54.148;12.174;2023-05-01T05:21:04;101818.72;;;14.56;44.93
53514;BME280;39768;54.148;12.174;2023-05-01T05:25:07;101810.31;;;14.10;48.62
53514;BME280;39768;54.148;12.174;2023-05-01T05:29:08;101805.75;;;13.34;50.60
53514;BME280;39768;54.148;12.174;2023-05-01T05:33:10;101802.06;;;13.50;50.03
53514;BME280;39768;54.148;12.174;2023-05-01T05:37:12;101796.28;;;12.90;53.98
53514;BME280;39768;54.148;12.174;2023-05-01T05:41:22;101801.75;;;12.61;56.73
53514;BME280;39768;54.148;12.174;2023-05-01T05:45:28;101798.47;;;12.00;60.30
53514;BME280;39768;54.148;12.174;2023-05-01T05:49:30;101792.25;;;12.01;65.71
53514;BME280;39768;54.148;12.174;2023-05-01T05:53:31;101795.69;;;12.27;62.03
53514;BME280;39768;54.148;12.174;2023-05-01T05:57:33;101790.19;;;12.65;63.30
53514;BME280;39768;54.148;12.174;2023-05-01T06:01:39;101784.66;;;12.96;61.21
53514;BME280;39768;54.148;12.174;2023-05-01T06:05:43;101787.66;;;12.41;62.00
53514;BME280;39768;54.148;12.174;2023-05-01T06:09:45;101780.63;;;12.23;65.13
53514;BME280;39768;54.148;12.174;2023-05-01T06:13:47;101785.16;;;11.91;67.86
53514;BME280;39768;54.148;12.174;2023-05-01T06:17:49;101781.53;;;12.18;66.24
53514;BME280;39768;54.148;12.174;2023-05-01T06:21:51;101775.22;;;12.43;64.25
53514;BME280;39768;54.148;12.174;2023-05-01T06:25:53;101768.56;;;13.11;61.22
53514;BME280;39768;54.148;12.174;2023-05-01T06:29:54;101770.41;;;13.04;61.32
53514;BME280;39768;54.148;12.174;2023-05-01T06:33:56;101769.94;;;13.62;60.19
53514;BME280;39768;54.148;12.174;2023-05-01T06:38:16;101767.41;;;13.47;59.06
53514;BME280;39768;54.148;12.174;2023-05-01T06:42:18;101771.31;;;13.97;57.10
53514;BME280;39768;54.148;12.174;2023-05-01T06:46:21;101764.28;;;14.63;54.44
53514;BME280;39768;54.148;12.174;2023-05-01T06:50:23;101757.38;;;15.08;55.59
53514;BME280;39768;54.148;12.174;2023-05-01T06:54:25;101761.41;;;14.77;55.64
53514;BME280;39768;54.148;12.174;2023-05-01T06:58:27;101745.97;;;14.97;55.68
53514;BME280;39768;54.148;12.174;2023-05-01T07:02:28;101752.66;;;15.23;53.75
53514;BME280;39768;54.148;12.174;2023-05-01T07:06:30;101746.91;;;15.45;52.23
53514;BME280;39768;54.148;12.174;2023-05-01T07:10:32;101750.03;;;15.20;50.71
53514;BME280;39768;54.148;12.174;2023-05-01T07:14:34;101734.00;;;15.20;49.64
53514;BME280;39768;54.148;12.174;2023-05-01T07:18:36;101737.84;;;16.02;47.94
53514;BME280;39768;54.148;12.174;2023-05-01T07:22:38;101728.44;;;16.24;48.21
53514;BME280;39768;54.148;12.174;2023-05-01T07:26:39;101729.03;;;15.47;49.51
53514;BME280;39768;54.148;12.174;2023-05-01T07:30:41;101725.91;;;16.58;46.03
53514;BME280;39768;54.148;12.174;2023-05-01T07:34:42;101720.50;;;16.60;45.74
53514;BME280;39768;54.148;12.174;2023-05-01T07:38:44;101726.72;;;17.00;44.71
53514;BME280;39768;54.148;12.174;2023-05-01T07:42:45;101722.75;;;17.16;44.28
53514;BME280;39768;54.148;12.174;2023-05-01T07:46:47;101710.69;;;16.97;45.39
53514;BME280;39768;54.148;12.174;2023-05-01T07:50:49;101710.00;;;17.24;45.15
53514;BME280;39768;54.148;12.174;2023-05-01T07:54:50;101704.09;;;16.75;44.86
53514;BME280;39768;54.148;12.174;2023-05-01T07:58:52;101696.91;;;17.12;44.45
53514;BME280;39768;54.148;12.174;2023-05-01T08:02:53;101686.50;;;16.99;44.29
53514;BME280;39768;54.148;12.174;2023-05-01T08:06:55;101683.94;;;17.62;41.93
53514;BME280;39768;54.148;12.174;2023-05-01T08:10:57;101687.16;;;17.76;41.49
53514;BME280;39768;54.148;12.174;2023-05-01T08:14:59;101681.28;;;17.60;41.29
53514;BME280;39768;54.148;12.174;2023-05-01T08:19:01;101667.97;;;17.56;41.96
53514;BME280;39768;54.148;12.174;2023-05-01T08:23:02;101668.81;;;17.25;41.63
53514;BME280;39768;54.148;12.174;2023-05-01T08:27:04;101664.66;;;17.80;40.60
53514;BME280;39768;54.148;12.174;2023-05-01T08:31:05;101662.34;;;17.97;41.82
53514;BME280;39768;54.148;12.174;2023-05-01T08:35:07;101662.72;;;18.43;39.65
53514;BME280;39768;54.148;12.174;2023-05-01T08:39:09;101655.06;;;18.30;39.26
53514;BME280;39768;54.148;12.174;2023-05-01T08:43:10;101658.44;;;18.66;38.48
53514;BME280;39768;54.148;12.174;2023-05-01T08:47:17;101652.19;;;18.37;37.74
53514;BME280;39768;54.148;12.174;2023-05-01T08:51:19;101640.25;;;18.45;38.12
53514;BME280;39768;54.148;12.174;2023-05-01T08:55:24;101636.50;;;18.23;37.78
53514;BME280;39768;54.148;12.174;2023-05-01T08:59:26;101647.69;;;18.93;36.95
53514;BME280;39768;54.148;12.174;2023-05-01T09:03:30;101628.78;;;18.94;37.01
53514;BME280;39768;54.148;12.174;2023-05-01T09:07:33;101630.78;;;18.61;36.25
53514;BME280;39768;54.148;12.174;2023-05-01T09:11:35;101629.97;;;18.59;36.85
53514;BME280;39768;54.148;12.174;2023-05-01T09:15:36;101626.63;;;18.79;36.68
53514;BME280;39768;54.148;12.174;2023-05-01T09:19:38;101616.78;;;18.78;35.62
53514;BME280;39768;54.148;12.174;2023-05-01T09:23:41;101612.66;;;19.19;35.77
53514;BME280;39768;54.148;12.174;2023-05-01T09:27:43;101615.25;;;19.72;33.50
53514;BME280;39768;54.148;12.174;2023-05-01T09:31:44;101608.13;;;19.93;34.66
53514;BME280;39768;54.148;12.174;2023-05-01T09:35:50;101597.81;;;19.08;35.26
53514;BME280;39768;54.148;12.174;2023-05-01T09:40:12;101587.94;;;19.58;35.94
53514;BME280;39768;54.148;12.174;2023-05-01T09:44:16;101590.00;;;19.98;32.94
53514;BME280;39768;54.148;12.174;2023-05-01T09:48:19;101592.06;;;20.35;33.04
53514;BME280;39768;54.148;12.174;2023-05-01T09:52:24;101584.06;;;20.77;32.87
53514;BME280;39768;54.148;12.174;2023-05-01T09:56:31;101585.97;;;19.86;32.12
53514;BME280;39768;54.148;12.174;2023-05-01T10:00:46;101573.06;;;19.23;31.72
53514;BME280;39768;54.148;12.174;2023-05-01T10:04:57;101567.16;;;20.06;31.50
53514;BME280;39768;54.148;12.174;2023-05-01T10:08:58;101574.94;;;20.37;31.93
53514;BME280;39768;54.148;12.174;2023-05-01T10:13:17;101574.00;;;20.81;30.66
53514;BME280;39768;54.148;12.174;2023-05-01T10:17:19;101563.25;;;20.59;31.14
53514;BME280;39768;54.148;12.174;2023-05-01T10:21:21;101566.50;;;20.67;29.83
53514;BME280;39768;54.148;12.174;2023-05-01T10:25:24;101556.97;;;20.15;31.07
53514;BME280;39768;54.148;12.174;2023-05-01T10:29:28;101554.50;;;20.08;30.82
53514;BME280;39768;54.148;12.174;2023-05-01T10:33:31;101547.44;;;20.50;31.84
53514;BME280;39768;54.148;12.174;2023-05-01T10:38:07;101535.50;;;20.77;30.50
53514;BME280;39768;54.148;12.174;2023-05-01T10:42:05;101524.06;;;21.11;31.90
53514;BME280;39768;54.148;12.174;2023-05-01T10:50:27;101519.88;;;21.63;29.36
53514;BME280;39768;54.148;12.174;2023-05-01T10:54:30;101510.19;;;21.39;30.25
53514;BME280;39768;54.148;12.174;2023-05-01T10:58:53;101506.78;;;21.73;31.20
53514;BME280;39768;54.148;12.174;2023-05-01T11:07:22;101500.84;;;21.27;30.16
53514;BME280;39768;54.148;12.174;2023-05-01T11:15:30;101487.66;;;21.21;30.07
53514;BME280;39768;54.148;12.174;2023-05-01T11:23:36;101476.03;;;21.57;30.86
53514;BME280;39768;54.148;12.174;2023-05-01T11:27:38;101473.66;;;21.51;30.58
53514;BME280;39768;54.148;12.174;2023-05-01T11:31:40;101471.44;;;21.77;29.00
53514;BME280;39768;54.148;12.174;2023-05-01T11:35:41;101461.34;;;21.25;30.14
53514;BME280;39768;54.148;12.174;2023-05-01T11:45:07;101452.72;;;21.92;28.81
53514;BME280;39768;54.148;12.174;2023-05-01T11:49:11;101444.84;;;22.06;27.75
53514;BME280;39768;54.148;12.174;2023-05-01T11:53:13;101437.22;;;22.48;29.45
53514;BME280;39768;54.148;12.174;2023-05-01T11:57:18;101428.63;;;22.40;28.04
53514;BME280;39768;54.148;12.174;2023-05-01T12:01:20;101426.44;;;22.12;28.92
53514;BME280;39768;54.148;12.174;2023-05-01T12:05:23;101422.13;;;21.72;27.68
53514;BME280;39768;54.148;12.174;2023-05-01T12:09:25;101421.59;;;21.83;29.09
53514;BME280;39768;54.148;12.174;2023-05-01T12:13:30;101430.63;;;21.65;28.54
53514;BME280;39768;54.148;12.174;2023-05-01T12:17:31;101412.06;;;22.46;28.40
53514;BME280;39768;54.148;12.174;2023-05-01T12:21:35;101414.84;;;21.18;27.90
53514;BME280;39768;54.148;12.174;2023-05-01T12:25:38;101402.47;;;21.52;29.18
53514;BME280;39768;54.148;12.174;2023-05-01T12:34:46;101388.72;;;21.92;28.88
53514;BME280;39768;54.148;12.174;2023-05-01T12:39:00;101399.09;;;22.36;27.67
53514;BME280;39768;54.148;12.174;2023-05-01T12:43:41;101382.56;;;21.53;29.25
53514;BME280;39768;54.148;12.174;2023-05-01T12:48:37;101390.22;;;21.80;27.20
53514;BME280;39768;54.148;12.174;2023-05-01T12:53:01;101388.25;;;21.09;29.25
53514;BME280;39768;54.148;12.174;2023-05-01T12:57:07;101365.63;;;21.85;29.26
53514;BME280;39768;54.148;12.174;2023-05-01T13:01:09;101361.88;;;22.06;29.05
53514;BME280;39768;54.148;12.174;2023-05-01T13:05:11;101364.59;;;22.06;27.72
53514;BME280;39768;54.148;12.174;2023-05-01T13:09:12;101364.91;;;22.17;28.93
53514;BME280;39768;54.148;12.174;2023-05-01T13:14:01;101357.44;;;22.23;29.00
53514;BME280;39768;54.148;12.174;2023-05-01T13:24:54;101345.06;;;22.51;29.06
53514;BME280;39768;54.148;12.174;2023-05-01T13:28:41;101338.09;;;22.13;27.88
53514;BME280;39768;54.148;12.174;2023-05-01T13:33:13;101346.44;;;22.26;28.05
53514;BME280;39768;54.148;12.174;2023-05-01T13:38:45;101338.13;;;22.46;27.36
53514;BME280;39768;54.148;12.174;2023-05-01T13:43:09;101324.31;;;22.68;27.75
53514;BME280;39768;54.148;12.174;2023-05-01T13:48:20;101322.13;;;22.08;28.43
53514;BME280;39768;54.148;12.174;2023-05-01T13:53:17;101320.41;;;22.40;27.84
53514;BME280;39768;54.148;12.174;2023-05-01T14:03:43;101308.16;;;22.33;28.01
53514;BME280;39768;54.148;12.174;2023-05-01T14:07:53;101309.91;;;22.84;27.04
53514;BME280;39768;54.148;12.174;2023-05-01T14:11:55;101308.91;;;23.48;25.86
53514;BME280;39768;54.148;12.174;2023-05-01T14:15:57;101292.66;;;22.85;26.35
53514;BME280;39768;54.148;12.174;2023-05-01T14:19:59;101289.13;;;22.85;27.54
53514;BME280;39768;54.148;12.174;2023-05-01T14:24:01;101281.66;;;22.40;27.93
53514;BME280;39768;54.148;12.174;2023-05-01T14:28:04;101285.56;;;22.34;27.90
53514;BME280;39768;54.148;12.174;2023-05-01T14:32:08;101284.84;;;22.64;27.11
53514;BME280;39768;54.148;12.174;2023-05-01T14:36:10;101272.06;;;22.83;27.69
53514;BME280;39768;54.148;12.174;2023-05-01T14:40:12;101265.44;;;23.04;27.11
53514;BME280;39768;54.148;12.174;2023-05-01T14:44:18;101252.16;;;23.45;25.93
53514;BME280;39768;54.148;12.174;2023-05-01T14:48:22;101264.13;;;23.27;26.09
53514;BME280;39768;54.148;12.174;2023-05-01T14:52:24;101253.47;;;23.70;25.74
53514;BME280;39768;54.148;12.174;2023-05-01T14:56:25;101246.47;;;23.96;24.80
53514;BME280;39768;54.148;12.174;2023-05-01T15:00:27;101258.84;;;23.85;25.71
53514;BME280;39768;54.148;12.174;2023-05-01T15:04:28;101248.97;;;23.84;25.20
53514;BME280;39768;54.148;12.174;2023-05-01T15:08:30;101240.34;;;22.69;25.78
53514;BME280;39768;54.148;12.174;2023-05-01T15:12:32;101234.69;;;23.67;25.23
53514;BME280;39768;54.148;12.174;2023-05-01T15:16:34;101230.50;;;23.45;26.73
53514;BME280;39768;54.148;12.174;2023-05-01T15:20:35;101232.75;;;23.69;25.61
53514;BME280;39768;54.148;12.174;2023-05-01T15:24:37;101237.28;;;23.23;26.01
53514;BME280;39768;54.148;12.174;2023-05-01T15:28:39;101229.44;;;22.86;25.61
53514;BME280;39768;54.148;12.174;2023-05-01T15:32:41;101220.97;;;22.93;25.99
53514;BME280;39768;54.148;12.174;2023-05-01T15:36:43;101225.69;;;22.89;26.89
53514;BME280;39768;54.148;12.174;2023-05-01T15:40:44;101216.44;;;21.78;28.09
53514;BME280;39768;54.148;12.174;2023-05-01T15:44:46;101217.97;;;22.17;27.07
53514;BME280;39768;54.148;12.174;2023-05-01T15:48:48;101224.53;;;22.29;27.56
53514;BME280;39768;54.148;12.174;2023-05-01T15:52:50;101221.25;;;22.24;27.39
53514;BME280;39768;54.148;12.174;2023-05-01T15:56:52;101207.13;;;22.50;30.79
53514;BME280;39768;54.148;12.174;2023-05-01T16:00:53;101207.22;;;22.48;31.34
53514;BME280;39768;54.148;12.174;2023-05-01T16:04:55;101201.03;;;22.13;31.58
53514;BME280;39768;54.148;12.174;2023-05-01T16:08:57;101199.00;;;21.67;34.15
53514;BME280;39768;54.148;12.174;2023-05-01T16:12:59;101198.47;;;21.43;33.75
53514;BME280;39768;54.148;12.174;2023-05-01T16:17:03;101192.53;;;21.36;33.10
53514;BME280;39768;54.148;12.174;2023-05-01T16:21:05;101193.56;;;21.34;36.24
53514;BME280;39768;54.148;12.174;2023-05-01T16:25:09;101187.72;;;20.88;37.37
53514;BME280;39768;54.148;12.174;2023-05-01T16:29:11;101186.25;;;21.00;37.36
53514;BME280;39768;54.148;12.174;2023-05-01T16:33:17;101187.75;;;20.51;34.82
53514;BME280;39768;54.148;12.174;2023-05-01T16:37:21;101198.09;;;20.41;35.57
53514;BME280;39768;54.148;12.174;2023-05-01T16:41:25;101197.06;;;19.86;36.38
53514;BME280;39768;54.148;12.174;2023-05-01T16:45:27;101191.88;;;19.81;36.64
53514;BME280;39768;54.148;12.174;2023-05-01T16:49:30;101184.22;;;19.91;37.90
53514;BME280;39768;54.148;12.174;2023-05-01T16:53:31;101193.06;;;19.74;38.26
53514;BME280;39768;54.148;12.174;2023-05-01T16:57:33;101188.09;;;19.85;37.76
53514;BME280;39768;54.148;12.174;2023-05-01T17:01:34;101193.09;;;19.54;39.02
53514;BME280;39768;54.148;12.174;2023-05-01T17:05:36;101190.34;;;19.55;39.52
53514;BME280;39768;54.148;12.174;2023-05-01T17:09:37;101201.38;;;19.48;37.63
53514;BME280;39768;54.148;12.174;2023-05-01T17:13:39;101185.44;;;19.43;38.13
53514;BME280;39768;54.148;12.174;2023-05-01T17:17:41;101178.06;;;18.39;36.22
53514;BME280;39768;54.148;12.174;2023-05-01T17:21:42;101176.38;;;18.13;37.74
53514;BME280;39768;54.148;12.174;2023-05-01T17:25:44;101165.34;;;17.73;38.63
53514;BME280;39768;54.148;12.174;2023-05-01T17:29:45;101161.59;;;18.25;38.02
53514;BME280;39768;54.148;12.174;2023-05-01T17:33:47;101162.34;;;18.05;38.81
53514;BME280;39768;54.148;12.174;2023-05-01T17:37:48;101162.72;;;17.71;41.54
53514;BME280;39768;54.148;12.174;2023-05-01T17:41:50;101161.22;;;17.38;43.14
53514;BME280;39768;54.148;12.174;2023-05-01T17:45:51;101162.13;;;17.37;41.85
53514;BME280;39768;54.148;12.174;2023-05-01T17:49:53;101165.25;;;17.76;41.39
53514;BME280;39768;54.148;12.174;2023-05-01T17:53:54;101174.91;;;18.28;39.87
53514;BME280;39768;54.148;12.174;2023-05-01T17:57:56;101173.97;;;18.06;40.85
53514;BME280;39768;54.148;12.174;2023-05-01T18:01:57;101177.03;;;18.20;39.58
53514;BME280;39768;54.148;12.174;2023-05-01T18:06:01;101170.56;;;17.77;40.28
53514;BME280;39768;54.148;12.174;2023-05-01T18:10:05;101171.94;;;17.38;40.91
53514;BME280;39768;54.148;12.174;2023-05-01T18:14:06;101162.78;;;16.92;41.68
53514;BME280;39768;54.148;12.174;2023-05-01T18:18:08;101166.69;;;16.82;40.64
53514;BME280;39768;54.148;12.174;2023-05-01T18:22:10;101166.56;;;16.86;42.21
53514;BME280;39768;54.148;12.174;2023-05-01T18:26:12;101163.84;;;16.58;43.42
53514;BME280;39768;54.148;12.174;2023-05-01T18:30:13;101163.81;;;16.60;43.55
53514;BME280;39768;54.148;12.174;2023-05-01T18:34:15;101159.56;;;16.53;42.65
53514;BME280;39768;54.148;12.174;2023-05-01T18:38:17;101164.72;;;16.02;44.61
53514;BME280;39768;54.148;12.174;2023-05-01T18:42:18;101164.53;;;16.08;44.75
53514;BME280;39768;54.148;12.174;2023-05-01T18:46:23;101166.44;;;16.03;44.72
53514;BME280;39768;54.148;12.174;2023-05-01T18:50:26;101172.00;;;15.97;44.72
53514;BME280;39768;54.148;12.174;2023-05-01T18:54:28;101168.91;;;15.79;46.45
53514;BME280;39768;54.148;12.174;2023-05-01T18:58:32;101160.28;;;16.30;46.03
53514;BME280;39768;54.148;12.174;2023-05-01T19:02:34;101164.84;;;16.27;46.69
53514;BME280;39768;54.148;12.174;2023-05-01T19:06:40;101162.00;;;15.72;47.11
53514;BME280;39768;54.148;12.174;2023-05-01T19:10:44;101158.94;;;15.86;48.10
53514;BME280;39768;54.148;12.174;2023-05-01T19:14:47;101162.84;;;16.04;47.50
53514;BME280;39768;54.148;12.174;2023-05-01T19:18:49;101166.28;;;16.09;48.17
53514;BME280;39768;54.148;12.174;2023-05-01T19:22:52;101162.56;;;15.83;49.57
53514;BME280;39768;54.148;12.174;2023-05-01T19:26:53;101168.91;;;15.79;48.42
53514;BME280;39768;54.148;12.174;2023-05-01T19:30:55;101160.44;;;15.30;48.56
53514;BME280;39768;54.148;12.174;2023-05-01T19:34:56;101161.44;;;15.60;49.19
53514;BME280;39768;54.148;12.174;2023-05-01T19:38:58;101158.00;;;15.55;50.78
53514;BME280;39768;54.148;12.174;2023-05-01T19:42:59;101165.34;;;15.46;51.95
53514;BME280;39768;54.148;12.174;2023-05-01T19:47:01;101152.41;;;15.30;53.93
53514;BME280;39768;54.148;12.174;2023-05-01T19:51:02;101163.63;;;15.11;54.23
53514;BME280;39768;54.148;12.174;2023-05-01T19:55:04;101158.69;;;14.95;54.39
53514;BME280;39768;54.148;12.174;2023-05-01T19:59:06;101158.72;;;14.93;55.11
53514;BME280;39768;54.148;12.174;2023-05-01T20:03:07;101159.69;;;14.91;56.05
53514;BME280;39768;54.148;12.174;2023-05-01T20:07:11;101151.91;;;14.81;56.01
53514;BME280;39768;54.148;12.174;2023-05-01T20:11:12;101151.22;;;14.72;56.45
53514;BME280;39768;54.148;12.174;2023-05-01T20:15:14;101154.59;;;14.43;58.22
53514;BME280;39768;54.148;12.174;2023-05-01T20:19:16;101152.84;;;14.40;59.35
53514;BME280;39768;54.148;12.174;2023-05-01T20:23:18;101163.19;;;14.56;58.87
53514;BME280;39768;54.148;12.174;2023-05-01T20:27:20;101161.72;;;14.42;59.07
53514;BME280;39768;54.148;12.174;2023-05-01T20:31:22;101165.09;;;14.51;58.67
53514;BME280;39768;54.148;12.174;2023-05-01T20:35:23;101171.44;;;14.46;57.85
53514;BME280;39768;54.148;12.174;2023-05-01T20:39:25;101168.88;;;14.40;59.14
53514;BME280;39768;54.148;12.174;2023-05-01T20:43:26;101169.50;;;14.11;62.89
53514;BME280;39768;54.148;12.174;2023-05-01T20:47:28;101175.03;;;14.44;61.19
53514;BME280;39768;54.148;12.174;2023-05-01T20:51:30;101171.66;;;14.36;63.12
53514;BME280;39768;54.148;12.174;2023-05-01T20:55:32;101169.59;;;13.64;67.23
53514;BME280;39768;54.148;12.174;2023-05-01T20:59:34;101171.91;;;14.24;63.62
53514;BME280;39768;54.148;12.174;2023-05-01T21:03:36;101166.28;;;14.37;63.14
53514;BME280;39768;54.148;12.174;2023-05-01T21:07:39;101172.72;;;14.27;64.35
53514;BME280;39768;54.148;12.174;2023-05-01T21:11:40;101184.31;;;14.26;63.77
53514;BME280;39768;54.148;12.174;2023-05-01T21:15:42;101190.06;;;14.08;65.90
53514;BME280;39768;54.148;12.174;2023-05-01T21:19:45;101204.34;;;14.05;64.33
53514;BME280;39768;54.148;12.174;2023-05-01T21:23:46;101206.06;;;14.09;65.46
53514;BME280;39768;54.148;12.174;2023-05-01T21:27:51;101204.06;;;14.19;64.87
53514;BME280;39768;54.148;12.174;2023-05-01T21:31:52;101194.72;;;13.97;66.22
53514;BME280;39768;54.148;12.174;2023-05-01T21:35:54;101194.72;;;13.97;64.26
53514;BME280;39768;54.148;12.174;2023-05-01T21:39:59;101201.69;;;14.05;60.06
53514;BME280;39768;54.148;12.174;2023-05-01T21:44:02;101202.94;;;14.29;60.10
53514;BME280;39768;54.148;12.174;2023-05-01T21:48:04;101205.31;;;14.01;62.62
53514;BME280;39768;54.148;12.174;2023-05-01T21:52:06;101209.78;;;14.01;60.52
53514;BME280;39768;54.148;12.174;2023-05-01T21:56:09;101203.56;;;13.99;58.62
53514;BME280;39768;54.148;12.174;2023-05-01T22:00:11;101200.56;;;14.16;57.56
53514;BME280;39768;54.148;12.174;2023-05-01T22:04:16;101199.56;;;14.21;57.35